Accueil
METAR-TAF:

METAR-TAF

Aéroports :

Brize Norton, Angleterre

latitude: 51-45N, longitude: 001-35W, altitude: 88 m

Observation

Le bulletin a été fait il y a 27 minutes, à 18:50 UTC
Vent 8 kt de nord/nord-ouest
Température 0°C
Humidité 80%
Pression 993 hPa
Visibilité 10 km ou plus
pas de nuages en-dessous de 1500 mètres et pas de cumulonimbus.

METAR: EGVN 111850Z 34008KT CAVOK M00/M03 Q0993 BLU NOSIG

Heure: 19:17 (19:17 UTC)

Prévision

Le bulletin a été fait il y a 2 heures et 20 minutes, à 16:57 UTC
Prévision valable du 11 à 18 UTC au 12 à 18 UTC
Vent 8 kt de nord-ouest
Visibilité 10 km ou plus
Quelques nuages à une hauteur de 4000 ft
Probabilité 40% :
Temporairement
du 12 à 12 UTC au 12 à 18 UTC
Visibilité: 5000 m
Nuages fragmentés à une hauteur de 200 ft
brume

TAF: EGVN 111657Z 1118/1218 32008KT 9999 FEW040 PROB40 TEMPO 1212/1218 5000 BR BKN002

Observations et prévisions météorologiques de plus de 4000 aéroports (messages METAR et TAF).

Les stations disponibles sont représentées par des disques jaunes et rouges sur la carte.

Passer la souris dessus pour voir le nom de la station.

Cliquer dessus pour voir les observations et prévisions météorologiques.

Pour changer de carte: cliquez sur les boutons verts avec une croix noire pour zoomer, sur le bouton vert avec un tiret pour effectuer un zoom arrière, ou sur les flèches vertes pour les cartes adjacentes.


METAR-TAF: